KMKC/MKC METAR and TAF weather

Enter ICAO airport designator
Station Type Date Time Source
KMKC METAR 2021/09/23 23:54 UTC NOAA

KMKC 232354Z 19009KT 10SM CLR 23/08 A3000 RMK AO2 SLP155 T02280083 10256 20228 55005


Station Type Date Time Source
KMKC Decoded METAR 2021/09/23 23:54 UTC NOAA

KANSAS CITY DOWNTOWN AIRPORT , MO, United States (KMKC) 39-07N 094-36W 227M
Sep 23, 2021 - 07:54 PM EDT / 2021.09.23 2354 UTC
Wind: from the S (190 degrees) at 10 MPH (9 KT):0
Visibility: 10 mile(s):0
Sky conditions: clear
Temperature: 73.0 F (22.8 C)
Dew Point: 46.9 F (8.3 C)
Relative Humidity: 39%
Pressure (altimeter): 30 in. Hg (1015 hPa)
Pressure tendency: 0.01 inches (0.5 hPa) lower than three hours ago
ob: KMKC 232354Z 19009KT 10SM CLR 23/08 A3000 RMK AO2 SLP155 T02280083 10256 20228 55005
cycle: 0

Station Type Date Time Source
KMKC TAF 2021/09/23 18:30 UTC NOAA

TAF KMKC 231726Z 2318/2418 25003KT P6SM SKC
FM240800 19008KT P6SM SKC WS020/22035KT
FM241400 21012G20KT P6SM SCT250

Example: see airport list